Time;durP1;ratioP1;P1;durP2;ratioP2;P2;SDS_P1;SDS_P2;PMS_P1;PMS_P2;Temp;Humidity;BMP_temperature;BMP_pressure;BME280_temperature;BME280_humidity;BME280_pressure;Samples;Min_cycle;Max_cycle;Signal;HPM_P1;HPM_P2
2023/04/22 00:02:08;;;;;;;;;;;;;;;;;;6146716;23;20298;-94
2023/04/22 00:04:34;;;;;;;;;;;;;;;;;;6144459;23;19916;-94
2023/04/22 00:07:00;;;;;;;;;;;;;;;;;;6143964;23;19907;-95
2023/04/22 00:09:26;;;;;;;;;;;;;;;;;;6146491;23;19923;-94
2023/04/22 00:11:52;;;;;;;;;;;;;;;;;;6145385;23;19996;-94
2023/04/22 00:14:18;;;;;;;;;;;;;;;;;;6144494;23;19974;-94
2023/04/22 00:16:44;;;;;;;;;;;;;;;;;;6145494;23;19952;-93
2023/04/22 00:19:09;;;;;;;;;;;;;;;;;;6145037;23;20006;-95
2023/04/22 00:21:35;;;;;;;;;;;;;;;;;;6146229;23;19940;-94
2023/04/22 00:24:01;;;;;;;;;;;;;;;;;;6170540;23;19971;-95
2023/04/22 00:26:27;;;;;;;;;;;;;;;;;;6145766;23;19974;-95
2023/04/22 00:28:53;;;;;;;;;;;;;;;;;;6145386;23;19995;-94
2023/04/22 00:31:19;;;;;;;;;;;;;;;;;;6144510;23;19920;-95
2023/04/22 00:33:45;;;;;;;;;;;;;;;;;;6146108;23;19939;-95
2023/04/22 00:36:11;;;;;;;;;;;;;;;;;;6145510;23;19983;-95
2023/04/22 00:38:37;;;;;;;;;;;;;;;;;;6145071;23;19948;-95
2023/04/22 00:41:03;;;;;;;;;;;;;;;;;;6145776;23;20251;-95
2023/04/22 00:43:29;;;;;;;;;;;;;;;;;;6144887;23;19916;-95
2023/04/22 00:45:55;;;;;;;;;;;;;;;;;;6144666;23;19916;-94
2023/04/22 00:48:21;;;;;;;;;;;;;;;;;;6144907;23;19916;-94
2023/04/22 00:50:47;;;;;;;;;;;;;;;;;;6144303;23;20224;-92
2023/04/22 00:53:13;;;;;;;;;;;;;;;;;;6170070;23;19923;-95
2023/04/22 00:55:38;;;;;;;;;;;;;;;;;;6145398;23;19939;-93
2023/04/22 00:58:05;;;;;;;;;;;;;;;;;;6144517;23;19916;-93
2023/04/22 01:00:30;;;;;;;;;;;;;;;;;;6144121;23;19918;-94
2023/04/22 01:02:57;;;;;;;;;;;;;;;;;;6145236;23;20228;-94
2023/04/22 01:05:23;;;;;;;;;;;;;;;;;;6144484;23;19963;-93
2023/04/22 01:07:49;;;;;;;;;;;;;;;;;;6145453;23;19956;-95
2023/04/22 01:10:14;;;;;;;;;;;;;;;;;;6144965;23;19947;-93
2023/04/22 01:12:40;;;;;;;;;;;;;;;;;;6169499;23;20354;-94
2023/04/22 01:15:06;;;;;;;;;;;;;;;;;;6144424;23;19923;-95
2023/04/22 01:17:32;;;;;;;;;;;;;;;;;;6143301;23;19939;-94
2023/04/22 01:19:58;;;;;;;;;;;;;;;;;;6144913;23;19920;-95
2023/04/22 01:22:24;;;;;;;;;;;;;;;;;;6145446;23;19943;-95
2023/04/22 01:24:50;;;;;;;;;;;;;;;;;;6143621;23;19944;-94
2023/04/22 01:27:16;;;;;;;;;;;;;;;;;;6144671;23;19923;-95
2023/04/22 01:29:42;;;;;;;;;;;;;;;;;;6143522;23;19916;-94
2023/04/22 01:32:08;;;;;;;;;;;;;;;;;;6143036;23;19943;-95
2023/04/22 01:34:34;;;;;;;;;;;;;;;;;;6145829;23;20224;-93
2023/04/22 01:37:00;;;;;;;;;;;;;;;;;;6144655;23;19973;-93
2023/04/22 01:39:26;;;;;;;;;;;;;;;;;;6146480;23;19916;-92
2023/04/22 01:41:52;;;;;;;;;;;;;;;;;;6148962;23;20335;-95
2023/04/22 01:44:18;;;;;;;;;;;;;;;;;;6145646;23;19987;-94
2023/04/22 01:46:44;;;;;;;;;;;;;;;;;;6144747;23;19916;-94
2023/04/22 01:49:10;;;;;;;;;;;;;;;;;;6144652;23;19924;-93
2023/04/22 01:51:36;;;;;;;;;;;;;;;;;;6167896;23;19924;-94
2023/04/22 01:54:03;;;;;;;;;;;;;;;;;;6144576;23;19967;-95
2023/04/22 01:56:30;;;;;;;;;;;;;;;;;;6144742;23;19962;-95
2023/04/22 01:58:56;;;;;;;;;;;;;;;;;;6144460;23;19916;-95
2023/04/22 02:01:22;;;;;;;;;;;;;;;;;;6144778;23;19923;-94
2023/04/22 02:03:47;;;;;;;;;;;;;;;;;;6143588;23;19939;-94
2023/04/22 02:06:13;;;;;;;;;;;;;;;;;;6143586;23;20301;-94
2023/04/22 02:08:39;;;;;;;;;;;;;;;;;;6142406;23;19916;-92
2023/04/22 02:11:05;;;;;;;;;;;;;;;;;;6143244;23;20253;-96
2023/04/22 02:13:31;;;;;;;;;;;;;;;;;;6144468;23;19996;-94
2023/04/22 02:15:57;;;;;;;;;;;;;;;;;;6144627;23;19964;-94
2023/04/22 02:18:23;;;;;;;;;;;;;;;;;;6144836;23;20035;-95
2023/04/22 02:20:49;;;;;;;;;;;;;;;;;;6145725;23;19920;-96
2023/04/22 02:23:15;;;;;;;;;;;;;;;;;;6143915;23;19916;-93
2023/04/22 02:25:40;;;;;;;;;;;;;;;;;;6143803;23;19916;-95
2023/04/22 02:28:06;;;;;;;;;;;;;;;;;;6145045;23;19924;-94
2023/04/22 02:30:32;;;;;;;;;;;;;;;;;;6143055;23;19924;-96
2023/04/22 02:32:58;;;;;;;;;;;;;;;;;;6143643;23;19943;-95
2023/04/22 02:35:24;;;;;;;;;;;;;;;;;;6143371;23;19959;-95
2023/04/22 02:37:50;;;;;;;;;;;;;;;;;;6143894;23;19916;-94
2023/04/22 02:40:16;;;;;;;;;;;;;;;;;;6143658;23;19943;-95
2023/04/22 02:42:42;;;;;;;;;;;;;;;;;;6144332;23;19923;-95
2023/04/22 02:45:08;;;;;;;;;;;;;;;;;;6144817;23;19974;-95
2023/04/22 02:47:34;;;;;;;;;;;;;;;;;;6143055;23;19991;-93
2023/04/22 02:50:00;;;;;;;;;;;;;;;;;;6143452;23;19931;-94
2023/04/22 02:52:26;;;;;;;;;;;;;;;;;;6143746;23;19916;-94
2023/04/22 02:54:52;;;;;;;;;;;;;;;;;;6143541;23;19916;-94
2023/04/22 02:57:18;;;;;;;;;;;;;;;;;;6144445;23;19920;-95
2023/04/22 02:59:43;;;;;;;;;;;;;;;;;;6143667;23;20335;-95
2023/04/22 03:02:10;;;;;;;;;;;;;;;;;;6144203;23;19916;-95
2023/04/22 03:04:36;;;;;;;;;;;;;;;;;;6144652;23;19916;-94
2023/04/22 03:07:02;;;;;;;;;;;;;;;;;;6167389;23;19951;-94
2023/04/22 03:09:28;;;;;;;;;;;;;;;;;;6142263;23;19987;-94
2023/04/22 03:11:54;;;;;;;;;;;;;;;;;;6143289;23;19947;-94
2023/04/22 03:14:20;;;;;;;;;;;;;;;;;;6143897;23;19916;-95
2023/04/22 03:16:46;;;;;;;;;;;;;;;;;;6143061;23;19916;-94
2023/04/22 03:19:12;;;;;;;;;;;;;;;;;;6168697;23;19965;-92
2023/04/22 03:21:38;;;;;;;;;;;;;;;;;;6144235;23;20092;-94
2023/04/22 03:24:04;;;;;;;;;;;;;;;;;;6148790;23;19916;-92
2023/04/22 03:26:30;;;;;;;;;;;;;;;;;;6149248;23;19916;-91
2023/04/22 03:28:56;;;;;;;;;;;;;;;;;;6150982;23;19955;-92
2023/04/22 03:31:22;;;;;;;;;;;;;;;;;;6149399;23;19960;-92
2023/04/22 03:33:48;;;;;;;;;;;;;;;;;;6148221;23;19952;-92
2023/04/22 03:36:14;;;;;;;;;;;;;;;;;;6144869;23;19982;-92
2023/04/22 03:38:40;;;;;;;;;;;;;;;;;;6143461;23;20564;-92
2023/04/22 03:41:06;;;;;;;;;;;;;;;;;;6144596;23;19951;-92
2023/04/22 03:43:32;;;;;;;;;;;;;;;;;;6143341;23;19940;-92
2023/04/22 03:45:58;;;;;;;;;;;;;;;;;;6142462;23;19964;-92
2023/04/22 03:48:24;;;;;;;;;;;;;;;;;;6142351;23;19916;-92
2023/04/22 03:50:50;;;;;;;;;;;;;;;;;;6142190;23;20258;-92
2023/04/22 03:53:16;;;;;;;;;;;;;;;;;;6166985;23;20322;-92
2023/04/22 03:55:41;;;;;;;;;;;;;;;;;;6142089;23;19917;-92
2023/04/22 03:58:07;;;;;;;;;;;;;;;;;;6168836;23;19939;-92
2023/04/22 04:00:33;;;;;;;;;;;;;;;;;;6168115;23;19947;-92
2023/04/22 04:02:59;;;;;;;;;;;;;;;;;;6142443;23;19923;-93
2023/04/22 04:05:25;;;;;;;;;;;;;;;;;;6140749;23;19916;-91
2023/04/22 04:07:51;;;;;;;;;;;;;;;;;;6142127;23;19964;-92
2023/04/22 04:10:17;;;;;;;;;;;;;;;;;;6142458;23;19974;-92
2023/04/22 04:12:43;;;;;;;;;;;;;;;;;;6143124;23;20502;-92
2023/04/22 04:15:09;;;;;;;;;;;;;;;;;;6140690;23;19956;-91
2023/04/22 04:17:35;;;;;;;;;;;;;;;;;;6142128;23;19916;-91
2023/04/22 04:20:01;;;;;;;;;;;;;;;;;;6143092;23;19972;-91
2023/04/22 04:22:28;;;;;;;;;;;;;;;;;;6141657;23;20331;-91
2023/04/22 04:24:54;;;;;;;;;;;;;;;;;;6141568;23;19916;-90
2023/04/22 04:27:22;;;;;;;;;;;;;;;;;;6141842;23;19951;-91
2023/04/22 04:29:48;;;;;;;;;;;;;;;;;;6145614;23;19920;-91
2023/04/22 04:32:14;;;;;;;;;;;;;;;;;;6145048;23;20350;-91
2023/04/22 04:34:41;;;;;;;;;;;;;;;;;;6144386;23;19973;-91
2023/04/22 04:37:08;;;;;;;;;;;;;;;;;;6167469;23;19916;-92
2023/04/22 04:39:33;;;;;;;;;;;;;;;;;;6143015;23;19916;-91
2023/04/22 04:41:59;;;;;;;;;;;;;;;;;;6167559;23;19923;-91
2023/04/22 04:44:26;;;;;;;;;;;;;;;;;;6145317;23;19916;-91
2023/04/22 04:46:53;;;;;;;;;;;;;;;;;;6142441;23;19991;-91
2023/04/22 04:49:19;;;;;;;;;;;;;;;;;;6143073;23;19962;-91
2023/04/22 04:51:45;;;;;;;;;;;;;;;;;;6141937;23;19985;-91
2023/04/22 04:54:11;;;;;;;;;;;;;;;;;;6142321;23;19916;-91
2023/04/22 04:56:37;;;;;;;;;;;;;;;;;;6143065;23;19923;-91
2023/04/22 04:59:05;;;;;;;;;;;;;;;;;;6143029;23;22223;-91
2023/04/22 05:01:30;;;;;;;;;;;;;;;;;;6143101;23;20236;-90
2023/04/22 05:03:56;;;;;;;;;;;;;;;;;;6141835;23;19916;-91
2023/04/22 05:06:22;;;;;;;;;;;;;;;;;;6166836;23;19950;-91
2023/04/22 05:08:48;;;;;;;;;;;;;;;;;;6142262;23;19920;-91
2023/04/22 05:11:14;;;;;;;;;;;;;;;;;;6141300;23;19924;-91
2023/04/22 05:13:40;;;;;;;;;;;;;;;;;;6142007;23;19966;-91
2023/04/22 05:16:12;;;;;;;;;;;;;;;;;;6141966;23;20338;-91
2023/04/22 05:18:39;;;;;;;;;;;;;;;;;;6142718;23;19921;-90
2023/04/22 05:21:05;;;;;;;;;;;;;;;;;;6146727;23;19940;-90
2023/04/22 05:23:31;;;;;;;;;;;;;;;;;;6147361;23;19917;-90
2023/04/22 05:25:57;;;;;;;;;;;;;;;;;;6146003;23;19917;-91
2023/04/22 05:28:23;;;;;;;;;;;;;;;;;;6145995;23;19927;-90
2023/04/22 05:30:49;;;;;;;;;;;;;;;;;;6145921;23;19920;-90
2023/04/22 05:33:15;;;;;;;;;;;;;;;;;;6142778;23;19984;-90
2023/04/22 05:35:41;;;;;;;;;;;;;;;;;;6167039;23;19923;-90
2023/04/22 05:38:07;;;;;;;;;;;;;;;;;;6141823;23;20227;-90
2023/04/22 05:40:33;;;;;;;;;;;;;;;;;;6141662;23;19966;-91
2023/04/22 05:42:58;;;;;;;;;;;;;;;;;;6141121;23;19920;-91
2023/04/22 05:45:24;;;;;;;;;;;;;;;;;;6141251;23;19966;-91
2023/04/22 05:47:50;;;;;;;;;;;;;;;;;;6141663;23;19916;-91
2023/04/22 05:50:16;;;;;;;;;;;;;;;;;;6141684;23;19920;-90
2023/04/22 05:52:42;;;;;;;;;;;;;;;;;;6140937;23;19916;-90
2023/04/22 05:55:08;;;;;;;;;;;;;;;;;;6141214;23;19920;-90
2023/04/22 05:57:34;;;;;;;;;;;;;;;;;;6141481;23;19917;-91
2023/04/22 06:00:00;;;;;;;;;;;;;;;;;;6141375;23;19916;-90
2023/04/22 06:02:26;;;;;;;;;;;;;;;;;;6141215;23;19923;-90
2023/04/22 06:04:52;;;;;;;;;;;;;;;;;;6139727;23;20246;-91
2023/04/22 06:07:18;;;;;;;;;;;;;;;;;;6165393;23;19955;-91
2023/04/22 06:09:44;;;;;;;;;;;;;;;;;;6141037;23;20500;-90
2023/04/22 06:12:09;;;;;;;;;;;;;;;;;;6141572;23;19917;-90
2023/04/22 06:14:35;;;;;;;;;;;;;;;;;;6140724;23;19916;-90
2023/04/22 06:17:01;;;;;;;;;;;;;;;;;;6141285;23;19916;-90
2023/04/22 06:19:27;;;;;;;;;;;;;;;;;;6141468;23;20411;-90
2023/04/22 06:21:55;;;;;;;;;;;;;;;;;;6139443;23;19923;-90
2023/04/22 06:24:21;;;;;;;;;;;;;;;;;;6164579;23;19922;-90
2023/04/22 06:26:47;;;;;;;;;;;;;;;;;;6140732;23;19964;-91
2023/04/22 06:29:13;;;;;;;;;;;;;;;;;;6141247;23;19995;-90
2023/04/22 06:31:39;;;;;;;;;;;;;;;;;;6164829;23;19996;-90
2023/04/22 06:34:05;;;;;;;;;;;;;;;;;;6140264;23;19922;-90
2023/04/22 06:36:32;;;;;;;;;;;;;;;;;;6140868;23;19916;-90
2023/04/22 06:39:01;;;;;;;;;;;;;;;;;;6141083;23;19927;-90
2023/04/22 06:41:27;;;;;;;;;;;;;;;;;;6140364;23;19923;-90
2023/04/22 06:43:53;;;;;;;;;;;;;;;;;;6164756;23;19916;-89
2023/04/22 06:46:19;;;;;;;;;;;;;;;;;;6139364;23;20299;-90
2023/04/22 06:48:45;;;;;;;;;;;;;;;;;;6140607;23;20011;-90
2023/04/22 06:51:11;;;;;;;;;;;;;;;;;;6139206;23;19920;-90
2023/04/22 06:53:37;;;;;;;;;;;;;;;;;;6139716;23;19917;-90
2023/04/22 06:56:03;;;;;;;;;;;;;;;;;;6140249;23;19916;-90
2023/04/22 06:58:29;;;;;;;;;;;;;;;;;;6140308;23;19917;-90
2023/04/22 07:00:55;;;;;;;;;;;;;;;;;;6138983;23;19966;-90
2023/04/22 07:03:21;;;;;;;;;;;;;;;;;;6139930;23;20302;-91
2023/04/22 07:05:47;;;;;;;;;;;;;;;;;;6139668;23;19916;-90
2023/04/22 07:08:13;;;;;;;;;;;;;;;;;;6140407;23;20243;-90
2023/04/22 07:10:39;;;;;;;;;;;;;;;;;;6164612;23;19921;-90
2023/04/22 07:13:05;;;;;;;;;;;;;;;;;;6140121;23;19916;-90
2023/04/22 07:15:31;;;;;;;;;;;;;;;;;;6139082;23;20353;-90
2023/04/22 07:17:56;;;;;;;;;;;;;;;;;;6164220;23;19916;-90
2023/04/22 07:20:22;;;;;;;;;;;;;;;;;;6139601;23;20354;-89
2023/04/22 07:22:48;;;;;;;;;;;;;;;;;;6139280;23;19920;-89
2023/04/22 07:25:14;;;;;;;;;;;;;;;;;;6164148;23;19920;-90
2023/04/22 07:27:40;;;;;;;;;;;;;;;;;;6139604;23;19916;-90
2023/04/22 07:30:06;;;;;;;;;;;;;;;;;;6163176;23;20490;-90
2023/04/22 07:32:32;;;;;;;;;;;;;;;;;;6140006;23;19917;-91
2023/04/22 07:34:58;;;;;;;;;;;;;;;;;;6139086;23;20231;-89
2023/04/22 07:37:24;;;;;;;;;;;;;;;;;;6164284;23;19927;-89
2023/04/22 07:39:50;;;;;;;;;;;;;;;;;;6144127;23;19917;-89
2023/04/22 07:45:19;;;;;;;;;;;;;;;;;;6199376;23;19991;-89
2023/04/22 07:47:45;;;;;;;;;;;;;;;;;;6138678;23;20259;-89
2023/04/22 07:50:11;;;;;;;;;;;;;;;;;;6138057;23;19959;-89
2023/04/22 07:52:37;;;;;;;;;;;;;;;;;;6138415;23;20421;-89
2023/04/22 07:55:03;;;;;;;;;;;;;;;;;;6162472;23;19954;-90
2023/04/22 07:57:29;;;;;;;;;;;;;;;;;;6139078;23;19952;-89
2023/04/22 07:59:55;;;;;;;;;;;;;;;;;;6139456;23;20389;-89
2023/04/22 08:02:21;;;;;;;;;;;;;;;;;;6138783;23;19916;-88
2023/04/22 08:04:47;;;;;;;;;;;;;;;;;;6139294;23;19971;-89
2023/04/22 08:07:13;;;;;;;;;;;;;;;;;;6137509;23;19917;-89
2023/04/22 08:09:39;;;;;;;;;;;;;;;;;;6137446;23;19950;-89
2023/04/22 08:12:05;;;;;;;;;;;;;;;;;;6138835;23;19921;-89
2023/04/22 08:14:31;;;;;;;;;;;;;;;;;;6138679;23;19923;-89
2023/04/22 08:16:57;;;;;;;;;;;;;;;;;;6138677;23;19920;-90
2023/04/22 08:19:23;;;;;;;;;;;;;;;;;;6138532;23;19967;-89
2023/04/22 08:21:50;;;;;;;;;;;;;;;;;;6138506;23;20224;-89
2023/04/22 08:24:16;;;;;;;;;;;;;;;;;;6139767;23;20320;-89
2023/04/22 08:26:42;;;;;;;;;;;;;;;;;;6138466;23;19916;-90
2023/04/22 08:29:08;;;;;;;;;;;;;;;;;;6164514;23;19923;-89
2023/04/22 08:31:34;;;;;;;;;;;;;;;;;;6138543;23;19927;-89
2023/04/22 08:34:00;;;;;;;;;;;;;;;;;;6140441;23;19917;-89
2023/04/22 08:36:27;;;;;;;;;;;;;;;;;;6140709;23;19923;-89
2023/04/22 08:38:53;;;;;;;;;;;;;;;;;;6165834;23;19916;-90
2023/04/22 08:41:19;;;;;;;;;;;;;;;;;;6141629;23;19916;-89
2023/04/22 08:43:45;;;;;;;;;;;;;;;;;;6141625;23;19991;-89
2023/04/22 08:46:14;;;;;;;;;;;;;;;;;;6139323;23;19916;-90
2023/04/22 08:48:40;;;;;;;;;;;;;;;;;;6139575;23;19916;-90
2023/04/22 08:51:06;;;;;;;;;;;;;;;;;;6140446;23;19927;-90
2023/04/22 08:53:32;;;;;;;;;;;;;;;;;;6140552;23;20250;-90
2023/04/22 08:55:57;;;;;;;;;;;;;;;;;;6165132;23;19952;-89
2023/04/22 08:58:23;;;;;;;;;;;;;;;;;;6141282;23;20042;-89
2023/04/22 09:00:49;;;;;;;;;;;;;;;;;;6141917;23;19923;-89
2023/04/22 09:03:15;;;;;;;;;;;;;;;;;;6166809;23;19963;-86
2023/04/22 09:05:41;;;;;;;;;;;;;;;;;;6139195;23;19939;-86
2023/04/22 09:08:07;;;;;;;;;;;;;;;;;;6138999;23;20250;-90
2023/04/22 09:10:33;;;;;;;;;;;;;;;;;;6140177;23;20021;-90
2023/04/22 09:12:59;;;;;;;;;;;;;;;;;;6165472;23;19920;-89
2023/04/22 09:15:26;;;;;;;;;;;;;;;;;;6166853;23;19916;-90
2023/04/22 09:17:52;;;;;;;;;;;;;;;;;;6140998;23;19920;-90
2023/04/22 09:20:18;;;;;;;;;;;;;;;;;;6140764;23;19992;-90
2023/04/22 09:22:44;;;;;;;;;;;;;;;;;;6141263;23;19917;-90
2023/04/22 09:25:10;;;;;;;;;;;;;;;;;;6164085;23;19923;-90
2023/04/22 09:27:36;;;;;;;;;;;;;;;;;;6140692;23;19920;-90
2023/04/22 09:30:02;;;;;;;;;;;;;;;;;;6141061;23;20257;-90
2023/04/22 09:32:28;;;;;;;;;;;;;;;;;;6141067;23;19975;-90
2023/04/22 09:34:54;;;;;;;;;;;;;;;;;;6141888;23;20301;-90
2023/04/22 09:37:22;;;;;;;;;;;;;;;;;;6165858;23;19916;-90
2023/04/22 09:39:49;;;;;;;;;;;;;;;;;;6141059;23;19943;-90
2023/04/22 09:42:14;;;;;;;;;;;;;;;;;;6141322;23;19981;-90
2023/04/22 09:44:40;;;;;;;;;;;;;;;;;;6141876;23;19944;-90
2023/04/22 09:47:09;;;;;;;;;;;;;;;;;;6139152;23;19916;-90
2023/04/22 09:49:35;;;;;;;;;;;;;;;;;;6164312;23;19971;-89
2023/04/22 09:52:04;;;;;;;;;;;;;;;;;;6138542;23;20298;-90
2023/04/22 09:54:30;;;;;;;;;;;;;;;;;;6140338;23;19920;-90
2023/04/22 09:56:56;;;;;;;;;;;;;;;;;;6140383;23;20414;-90
2023/04/22 09:59:22;;;;;;;;;;;;;;;;;;6140288;23;19946;-90
2023/04/22 10:01:48;;;;;;;;;;;;;;;;;;6140919;23;20245;-90
2023/04/22 10:06:52;;;;;;;;;;;;;;;;;;6164843;23;19917;-90
2023/04/22 10:09:19;;;;;;;;;;;;;;;;;;6139078;23;19917;-90
2023/04/22 10:12:00;;;;;;;;;;;;;;;;;;6140803;23;19921;-90
2023/04/22 10:14:26;;;;;;;;;;;;;;;;;;6141254;23;19960;-91
2023/04/22 10:16:52;;;;;;;;;;;;;;;;;;6141771;23;19963;-90
2023/04/22 10:19:17;;;;;;;;;;;;;;;;;;6140396;23;19916;-90
2023/04/22 10:22:02;;;;;;;;;;;;;;;;;;6140327;23;19916;-90
2023/04/22 10:24:28;;;;;;;;;;;;;;;;;;6140592;23;19916;-90
2023/04/22 10:26:55;;;;;;;;;;;;;;;;;;6139947;23;19916;-89
2023/04/22 10:29:21;;;;;;;;;;;;;;;;;;6140936;23;19916;-89
2023/04/22 10:31:47;;;;;;;;;;;;;;;;;;6140125;23;20038;-89
2023/04/22 10:34:13;;;;;;;;;;;;;;;;;;6140982;23;20286;-89
2023/04/22 10:36:40;;;;;;;;;;;;;;;;;;6140010;23;19920;-89
2023/04/22 10:39:06;;;;;;;;;;;;;;;;;;6140149;23;19917;-89
2023/04/22 10:41:32;;;;;;;;;;;;;;;;;;6140161;23;20358;-89
2023/04/22 10:43:58;;;;;;;;;;;;;;;;;;6164797;23;19997;-89
2023/04/22 10:46:34;;;;;;;;;;;;;;;;;;6140440;23;19955;-89
2023/04/22 10:49:00;;;;;;;;;;;;;;;;;;6140510;23;20385;-89
2023/04/22 10:51:26;;;;;;;;;;;;;;;;;;6139405;23;19908;-88
2023/04/22 10:53:51;;;;;;;;;;;;;;;;;;6140031;23;19939;-88
2023/04/22 10:56:18;;;;;;;;;;;;;;;;;;6138498;23;19923;-88
2023/04/22 10:58:44;;;;;;;;;;;;;;;;;;6137620;23;19916;-89
2023/04/22 11:01:09;;;;;;;;;;;;;;;;;;6139283;23;19947;-89
2023/04/22 11:03:35;;;;;;;;;;;;;;;;;;6137551;23;19916;-88
2023/04/22 11:08:42;;;;;;;;;;;;;;;;;;6164837;23;19924;-88
2023/04/22 11:11:08;;;;;;;;;;;;;;;;;;6141261;23;19927;-88
2023/04/22 11:13:38;;;;;;;;;;;;;;;;;;6165242;23;19919;-88
2023/04/22 11:16:03;;;;;;;;;;;;;;;;;;6140340;23;20331;-88
2023/04/22 11:18:31;;;;;;;;;;;;;;;;;;6141190;23;20000;-88
2023/04/22 11:20:57;;;;;;;;;;;;;;;;;;6140062;23;19916;-88
2023/04/22 11:23:23;;;;;;;;;;;;;;;;;;6139854;23;19916;-86
2023/04/22 11:25:49;;;;;;;;;;;;;;;;;;6164758;23;19924;-87
2023/04/22 11:28:15;;;;;;;;;;;;;;;;;;6163991;23;19982;-86
2023/04/22 11:30:40;;;;;;;;;;;;;;;;;;6163098;23;20255;-88
2023/04/22 11:33:07;;;;;;;;;;;;;;;;;;6140557;23;19925;-87
2023/04/22 11:35:32;;;;;;;;;;;;;;;;;;6140268;23;19913;-88
2023/04/22 11:38:00;;;;;;;;;;;;;;;;;;6164482;23;19920;-88
2023/04/22 11:40:26;;;;;;;;;;;;;;;;;;6138888;23;19916;-88
2023/04/22 11:42:52;;;;;;;;;;;;;;;;;;6138143;23;20254;-88
2023/04/22 11:45:18;;;;;;;;;;;;;;;;;;6139556;23;19924;-87
2023/04/22 11:47:45;;;;;;;;;;;;;;;;;;6139764;23;19923;-87
2023/04/22 11:50:12;;;;;;;;;;;;;;;;;;6139733;23;19923;-87
2023/04/22 11:52:38;;;;;;;;;;;;;;;;;;6140391;23;19924;-88
2023/04/22 11:55:04;;;;;;;;;;;;;;;;;;6139661;23;20319;-87
2023/04/22 11:57:30;;;;;;;;;;;;;;;;;;6139003;23;19924;-88
2023/04/22 11:59:57;;;;;;;;;;;;;;;;;;6139565;23;19916;-87
2023/04/22 12:02:23;;;;;;;;;;;;;;;;;;6140508;23;19916;-87
2023/04/22 12:04:49;;;;;;;;;;;;;;;;;;6167990;23;19943;-88
2023/04/22 12:07:15;;;;;;;;;;;;;;;;;;6143825;23;19916;-86
2023/04/22 12:09:41;;;;;;;;;;;;;;;;;;6143278;23;19998;-87
2023/04/22 12:12:07;;;;;;;;;;;;;;;;;;6143234;23;19952;-88
2023/04/22 12:14:33;;;;;;;;;;;;;;;;;;6143446;23;19900;-88
2023/04/22 12:16:59;;;;;;;;;;;;;;;;;;6142724;23;19920;-88
2023/04/22 12:19:25;;;;;;;;;;;;;;;;;;6142505;23;19917;-88
2023/04/22 12:21:51;;;;;;;;;;;;;;;;;;6141290;23;20327;-88
2023/04/22 12:24:21;;;;;;;;;;;;;;;;;;6142945;23;19940;-87
2023/04/22 12:26:47;;;;;;;;;;;;;;;;;;6142779;23;19941;-87
2023/04/22 12:29:12;;;;;;;;;;;;;;;;;;6167098;23;20373;-88
2023/04/22 12:31:38;;;;;;;;;;;;;;;;;;6167864;23;19999;-87
2023/04/22 12:34:04;;;;;;;;;;;;;;;;;;6142761;23;19923;-87
2023/04/22 12:36:31;;;;;;;;;;;;;;;;;;6142429;23;19986;-88
2023/04/22 12:38:57;;;;;;;;;;;;;;;;;;6167072;23;19916;-88
2023/04/22 12:41:23;;;;;;;;;;;;;;;;;;6142340;23;19922;-88
2023/04/22 12:43:49;;;;;;;;;;;;;;;;;;6142768;23;19920;-88
2023/04/22 12:46:15;;;;;;;;;;;;;;;;;;6142463;23;20331;-86
2023/04/22 12:48:41;;;;;;;;;;;;;;;;;;6141970;23;19916;-86
2023/04/22 12:51:07;;;;;;;;;;;;;;;;;;6142014;23;19927;-87
2023/04/22 12:56:20;;;;;;;;;;;;;;;;;;6167670;23;19940;-88
2023/04/22 12:58:46;;;;;;;;;;;;;;;;;;6167425;23;19923;-88
2023/04/22 13:01:12;;;;;;;;;;;;;;;;;;6142630;23;19947;-88
2023/04/22 13:03:37;;;;;;;;;;;;;;;;;;6142243;23;20306;-88
2023/04/22 13:06:07;;;;;;;;;;;;;;;;;;6141440;23;19916;-89
2023/04/22 13:08:33;;;;;;;;;;;;;;;;;;6142182;23;20327;-90
2023/04/22 13:10:59;;;;;;;;;;;;;;;;;;6142609;23;20064;-89
2023/04/22 13:13:25;;;;;;;;;;;;;;;;;;6143316;23;19916;-89
2023/04/22 13:15:52;;;;;;;;;;;;;;;;;;6142009;23;19924;-89
2023/04/22 13:18:17;;;;;;;;;;;;;;;;;;6141650;23;19917;-89
2023/04/22 13:20:44;;;;;;;;;;;;;;;;;;6141541;23;19991;-88
2023/04/22 13:23:10;;;;;;;;;;;;;;;;;;6141500;23;19944;-90
2023/04/22 13:25:36;;;;;;;;;;;;;;;;;;6141845;23;20575;-89
2023/04/22 13:28:02;;;;;;;;;;;;;;;;;;6141824;23;19916;-89
2023/04/22 13:30:39;;;;;;;;;;;;;;;;;;6141295;23;19967;-89
2023/04/22 13:33:05;;;;;;;;;;;;;;;;;;6141207;23;20243;-89
2023/04/22 13:35:31;;;;;;;;;;;;;;;;;;6165229;23;19916;-88
2023/04/22 13:37:57;;;;;;;;;;;;;;;;;;6140331;23;19916;-89
2023/04/22 13:40:23;;;;;;;;;;;;;;;;;;6165011;23;19916;-89
2023/04/22 13:42:48;;;;;;;;;;;;;;;;;;6140501;23;20003;-89
2023/04/22 13:45:14;;;;;;;;;;;;;;;;;;6139349;23;19967;-89
2023/04/22 13:47:40;;;;;;;;;;;;;;;;;;6138871;23;19916;-88
2023/04/22 13:50:06;;;;;;;;;;;;;;;;;;6139711;23;19923;-88
2023/04/22 13:52:32;;;;;;;;;;;;;;;;;;6140419;23;19916;-89
2023/04/22 13:54:58;;;;;;;;;;;;;;;;;;6164901;23;19916;-90
2023/04/22 13:57:24;;;;;;;;;;;;;;;;;;6140250;23;20384;-89
2023/04/22 13:59:50;;;;;;;;;;;;;;;;;;6140598;23;19923;-90
2023/04/22 14:02:16;;;;;;;;;;;;;;;;;;6139637;23;19987;-90
2023/04/22 14:04:42;;;;;;;;;;;;;;;;;;6139869;23;19956;-89
2023/04/22 14:07:08;;;;;;;;;;;;;;;;;;6139884;23;19916;-90
2023/04/22 14:09:34;;;;;;;;;;;;;;;;;;6141255;23;19916;-89
2023/04/22 14:12:00;;;;;;;;;;;;;;;;;;6141277;23;19920;-89
2023/04/22 14:14:26;;;;;;;;;;;;;;;;;;6140301;23;20322;-89
2023/04/22 14:16:52;;;;;;;;;;;;;;;;;;6139516;23;19987;-89
2023/04/22 14:19:17;;;;;;;;;;;;;;;;;;6165027;23;19973;-90
2023/04/22 14:21:43;;;;;;;;;;;;;;;;;;6140624;23;20339;-90
2023/04/22 14:24:09;;;;;;;;;;;;;;;;;;6139597;23;19970;-89
2023/04/22 14:26:35;;;;;;;;;;;;;;;;;;6139491;23;19916;-89
2023/04/22 14:29:01;;;;;;;;;;;;;;;;;;6140748;23;19920;-90
2023/04/22 14:31:27;;;;;;;;;;;;;;;;;;6140067;23;20430;-90
2023/04/22 14:33:53;;;;;;;;;;;;;;;;;;6140540;23;19999;-90
2023/04/22 14:36:19;;;;;;;;;;;;;;;;;;6164839;23;19926;-90
2023/04/22 14:38:48;;;;;;;;;;;;;;;;;;6140447;23;19955;-89
2023/04/22 14:41:14;;;;;;;;;;;;;;;;;;6140673;23;19924;-89
2023/04/22 14:43:40;;;;;;;;;;;;;;;;;;6140261;23;19916;-89
2023/04/22 14:46:06;;;;;;;;;;;;;;;;;;6164503;23;20328;-89
2023/04/22 14:48:41;;;;;;;;;;;;;;;;;;6137604;23;19970;-88
2023/04/22 14:51:07;;;;;;;;;;;;;;;;;;6136600;23;19960;-88
2023/04/22 14:53:33;;;;;;;;;;;;;;;;;;6161791;23;19916;-88
2023/04/22 14:55:59;;;;;;;;;;;;;;;;;;6136349;23;19924;-86
2023/04/22 14:58:27;;;;;;;;;;;;;;;;;;6137131;23;19987;-87
2023/04/22 15:00:53;;;;;;;;;;;;;;;;;;6160650;23;19916;-88
2023/04/22 15:03:19;;;;;;;;;;;;;;;;;;6136824;23;20334;-89
2023/04/22 15:05:48;;;;;;;;;;;;;;;;;;6135401;23;19916;-89
2023/04/22 15:08:14;;;;;;;;;;;;;;;;;;6135827;23;19995;-89
2023/04/22 15:10:39;;;;;;;;;;;;;;;;;;6135527;23;19975;-88
2023/04/22 15:13:05;;;;;;;;;;;;;;;;;;6136177;23;19922;-88
2023/04/22 15:15:31;;;;;;;;;;;;;;;;;;6136304;23;19917;-89
2023/04/22 15:17:57;;;;;;;;;;;;;;;;;;6160796;23;19916;-89
2023/04/22 15:20:23;;;;;;;;;;;;;;;;;;6136201;23;19916;-89
2023/04/22 15:22:49;;;;;;;;;;;;;;;;;;6136057;23;20015;-90
2023/04/22 15:25:15;;;;;;;;;;;;;;;;;;6136085;23;19987;-89
2023/04/22 15:27:41;;;;;;;;;;;;;;;;;;6136412;23;19991;-88
2023/04/22 15:30:07;;;;;;;;;;;;;;;;;;6136439;23;19916;-88
2023/04/22 15:32:33;;;;;;;;;;;;;;;;;;6137181;23;19916;-88
2023/04/22 15:34:59;;;;;;;;;;;;;;;;;;6135373;23;19975;-88
2023/04/22 15:37:25;;;;;;;;;;;;;;;;;;6135830;23;19916;-88
2023/04/22 15:39:51;;;;;;;;;;;;;;;;;;6160133;23;19916;-88
2023/04/22 15:42:17;;;;;;;;;;;;;;;;;;6136013;23;19951;-88
2023/04/22 15:44:43;;;;;;;;;;;;;;;;;;6135461;23;19951;-88
2023/04/22 15:47:09;;;;;;;;;;;;;;;;;;6135061;23;19995;-88
2023/04/22 15:49:36;;;;;;;;;;;;;;;;;;6135034;23;19916;-88
2023/04/22 15:52:02;;;;;;;;;;;;;;;;;;6135511;23;20314;-88
2023/04/22 15:54:28;;;;;;;;;;;;;;;;;;6135828;23;19916;-88
2023/04/22 15:56:53;;;;;;;;;;;;;;;;;;6136278;23;19916;-88
2023/04/22 15:59:19;;;;;;;;;;;;;;;;;;6135941;23;19924;-87
2023/04/22 16:01:45;;;;;;;;;;;;;;;;;;6135037;23;20017;-88
2023/04/22 16:04:11;;;;;;;;;;;;;;;;;;6137814;23;19988;-89
2023/04/22 16:06:37;;;;;;;;;;;;;;;;;;6138450;23;19946;-88
2023/04/22 16:09:04;;;;;;;;;;;;;;;;;;6162495;23;20232;-89
2023/04/22 16:11:30;;;;;;;;;;;;;;;;;;6136031;23;19928;-88
2023/04/22 16:13:56;;;;;;;;;;;;;;;;;;6136489;23;19924;-87
2023/04/22 16:16:22;;;;;;;;;;;;;;;;;;6160885;23;19924;-89
2023/04/22 16:18:48;;;;;;;;;;;;;;;;;;6136225;23;19978;-89
2023/04/22 16:21:14;;;;;;;;;;;;;;;;;;6160393;23;19916;-88
2023/04/22 16:23:40;;;;;;;;;;;;;;;;;;6134903;23;19916;-88
2023/04/22 16:26:06;;;;;;;;;;;;;;;;;;6131810;23;19987;-89
2023/04/22 16:28:32;;;;;;;;;;;;;;;;;;6134989;23;19916;-89
2023/04/22 16:30:58;;;;;;;;;;;;;;;;;;6160596;23;19920;-88
2023/04/22 16:33:24;;;;;;;;;;;;;;;;;;6136543;23;20361;-89
2023/04/22 16:35:49;;;;;;;;;;;;;;;;;;6136439;23;19920;-89
2023/04/22 16:38:15;;;;;;;;;;;;;;;;;;6136151;23;19955;-89
2023/04/22 16:40:41;;;;;;;;;;;;;;;;;;6137861;23;20309;-89
2023/04/22 16:43:08;;;;;;;;;;;;;;;;;;6136835;23;19920;-89
2023/04/22 16:45:34;;;;;;;;;;;;;;;;;;6137159;23;19916;-89
2023/04/22 16:47:59;;;;;;;;;;;;;;;;;;6136101;23;19920;-89
2023/04/22 16:50:25;;;;;;;;;;;;;;;;;;6138223;23;20246;-89